sensor_id;sensor_type;location;lat;lon;timestamp;P1;durP1;ratioP1;P2;durP2;ratioP2
69152;SDS011;56261;51.580;4.578;2022-08-16T00:00:46;37.70;;;26.45;;
69152;SDS011;56261;51.580;4.578;2022-08-16T00:03:11;36.40;;;26.70;;
69152;SDS011;56261;51.580;4.578;2022-08-16T00:05:37;41.58;;;27.10;;
69152;SDS011;56261;51.580;4.578;2022-08-16T00:08:03;39.33;;;27.27;;
69152;SDS011;56261;51.580;4.578;2022-08-16T00:10:30;37.45;;;27.33;;
69152;SDS011;56261;51.580;4.578;2022-08-16T00:12:57;40.22;;;28.20;;
69152;SDS011;56261;51.580;4.578;2022-08-16T00:15:38;41.58;;;29.20;;
69152;SDS011;56261;51.580;4.578;2022-08-16T00:18:07;41.90;;;27.73;;
69152;SDS011;56261;51.580;4.578;2022-08-16T00:20:34;42.88;;;29.10;;
69152;SDS011;56261;51.580;4.578;2022-08-16T00:23:03;36.78;;;27.30;;
69152;SDS011;56261;51.580;4.578;2022-08-16T00:25:28;38.20;;;27.88;;
69152;SDS011;56261;51.580;4.578;2022-08-16T00:27:54;42.07;;;29.50;;
69152;SDS011;56261;51.580;4.578;2022-08-16T00:30:20;43.10;;;29.35;;
69152;SDS011;56261;51.580;4.578;2022-08-16T00:32:47;39.92;;;28.30;;
69152;SDS011;56261;51.580;4.578;2022-08-16T00:35:17;44.38;;;31.15;;
69152;SDS011;56261;51.580;4.578;2022-08-16T00:37:44;45.27;;;31.13;;
69152;SDS011;56261;51.580;4.578;2022-08-16T00:40:22;44.78;;;31.58;;
69152;SDS011;56261;51.580;4.578;2022-08-16T00:42:56;45.25;;;31.05;;
69152;SDS011;56261;51.580;4.578;2022-08-16T00:48:45;42.13;;;30.33;;
69152;SDS011;56261;51.580;4.578;2022-08-16T00:51:13;47.78;;;31.70;;
69152;SDS011;56261;51.580;4.578;2022-08-16T00:53:40;47.17;;;32.13;;
69152;SDS011;56261;51.580;4.578;2022-08-16T00:56:07;43.73;;;30.23;;
69152;SDS011;56261;51.580;4.578;2022-08-16T00:58:36;47.88;;;32.03;;
69152;SDS011;56261;51.580;4.578;2022-08-16T01:01:05;43.97;;;29.80;;
69152;SDS011;56261;51.580;4.578;2022-08-16T01:03:32;39.65;;;28.95;;
69152;SDS011;56261;51.580;4.578;2022-08-16T01:05:59;48.90;;;31.75;;
69152;SDS011;56261;51.580;4.578;2022-08-16T01:08:25;40.33;;;28.63;;
69152;SDS011;56261;51.580;4.578;2022-08-16T01:10:51;36.40;;;27.38;;
69152;SDS011;56261;51.580;4.578;2022-08-16T01:13:19;46.35;;;30.30;;
69152;SDS011;56261;51.580;4.578;2022-08-16T01:15:55;37.80;;;26.87;;
69152;SDS011;56261;51.580;4.578;2022-08-16T01:18:27;36.65;;;25.17;;
69152;SDS011;56261;51.580;4.578;2022-08-16T01:20:59;38.22;;;26.63;;
69152;SDS011;56261;51.580;4.578;2022-08-16T01:26:18;42.15;;;29.33;;
69152;SDS011;56261;51.580;4.578;2022-08-16T01:28:44;37.67;;;25.80;;
69152;SDS011;56261;51.580;4.578;2022-08-16T01:31:11;38.50;;;25.65;;
69152;SDS011;56261;51.580;4.578;2022-08-16T01:33:39;37.40;;;25.77;;
69152;SDS011;56261;51.580;4.578;2022-08-16T01:36:05;37.17;;;25.67;;
69152;SDS011;56261;51.580;4.578;2022-08-16T01:38:34;36.60;;;24.35;;
69152;SDS011;56261;51.580;4.578;2022-08-16T01:41:07;38.20;;;26.05;;
69152;SDS011;56261;51.580;4.578;2022-08-16T01:43:36;33.97;;;24.40;;
69152;SDS011;56261;51.580;4.578;2022-08-16T01:46:05;36.10;;;24.67;;
69152;SDS011;56261;51.580;4.578;2022-08-16T01:48:34;34.83;;;24.20;;
69152;SDS011;56261;51.580;4.578;2022-08-16T01:51:00;34.77;;;25.33;;
69152;SDS011;56261;51.580;4.578;2022-08-16T01:53:27;36.00;;;24.20;;
69152;SDS011;56261;51.580;4.578;2022-08-16T01:55:54;32.17;;;23.08;;
69152;SDS011;56261;51.580;4.578;2022-08-16T01:58:20;33.60;;;23.33;;
69152;SDS011;56261;51.580;4.578;2022-08-16T02:00:48;32.70;;;24.23;;
69152;SDS011;56261;51.580;4.578;2022-08-16T02:03:13;35.17;;;24.47;;
69152;SDS011;56261;51.580;4.578;2022-08-16T02:05:40;35.10;;;23.30;;
69152;SDS011;56261;51.580;4.578;2022-08-16T02:08:06;32.53;;;23.83;;
69152;SDS011;56261;51.580;4.578;2022-08-16T02:10:33;31.63;;;23.50;;
69152;SDS011;56261;51.580;4.578;2022-08-16T02:13:01;29.95;;;22.45;;
69152;SDS011;56261;51.580;4.578;2022-08-16T02:15:30;32.85;;;23.45;;
69152;SDS011;56261;51.580;4.578;2022-08-16T02:17:57;32.95;;;23.48;;
69152;SDS011;56261;51.580;4.578;2022-08-16T02:20:26;33.47;;;23.73;;
69152;SDS011;56261;51.580;4.578;2022-08-16T02:22:53;35.33;;;24.13;;
69152;SDS011;56261;51.580;4.578;2022-08-16T02:25:22;34.80;;;23.17;;
69152;SDS011;56261;51.580;4.578;2022-08-16T02:27:48;38.05;;;24.05;;
69152;SDS011;56261;51.580;4.578;2022-08-16T02:30:16;37.55;;;24.65;;
69152;SDS011;56261;51.580;4.578;2022-08-16T02:32:45;34.63;;;23.93;;
69152;SDS011;56261;51.580;4.578;2022-08-16T02:35:11;35.10;;;24.38;;
69152;SDS011;56261;51.580;4.578;2022-08-16T02:37:38;33.88;;;24.52;;
69152;SDS011;56261;51.580;4.578;2022-08-16T02:40:05;37.57;;;25.07;;
69152;SDS011;56261;51.580;4.578;2022-08-16T02:42:31;34.70;;;23.83;;
69152;SDS011;56261;51.580;4.578;2022-08-16T02:44:56;35.30;;;25.08;;
69152;SDS011;56261;51.580;4.578;2022-08-16T02:47:22;37.47;;;25.70;;
69152;SDS011;56261;51.580;4.578;2022-08-16T02:49:47;33.73;;;23.87;;
69152;SDS011;56261;51.580;4.578;2022-08-16T02:52:14;34.75;;;24.40;;
69152;SDS011;56261;51.580;4.578;2022-08-16T02:54:40;37.58;;;25.05;;
69152;SDS011;56261;51.580;4.578;2022-08-16T02:57:06;42.20;;;26.88;;
69152;SDS011;56261;51.580;4.578;2022-08-16T02:59:31;41.90;;;28.40;;
69152;SDS011;56261;51.580;4.578;2022-08-16T03:01:57;37.50;;;25.47;;
69152;SDS011;56261;51.580;4.578;2022-08-16T03:04:23;38.88;;;26.48;;
69152;SDS011;56261;51.580;4.578;2022-08-16T03:06:48;37.77;;;25.97;;
69152;SDS011;56261;51.580;4.578;2022-08-16T03:09:15;40.45;;;25.85;;
69152;SDS011;56261;51.580;4.578;2022-08-16T03:11:41;39.63;;;26.83;;
69152;SDS011;56261;51.580;4.578;2022-08-16T03:14:06;40.38;;;26.42;;
69152;SDS011;56261;51.580;4.578;2022-08-16T03:16:32;36.57;;;25.43;;
69152;SDS011;56261;51.580;4.578;2022-08-16T03:18:57;37.03;;;26.20;;
69152;SDS011;56261;51.580;4.578;2022-08-16T03:21:23;38.85;;;25.88;;
69152;SDS011;56261;51.580;4.578;2022-08-16T03:23:49;42.45;;;26.48;;
69152;SDS011;56261;51.580;4.578;2022-08-16T03:26:15;40.03;;;26.70;;
69152;SDS011;56261;51.580;4.578;2022-08-16T03:28:41;45.47;;;28.38;;
69152;SDS011;56261;51.580;4.578;2022-08-16T03:31:06;38.30;;;25.90;;
69152;SDS011;56261;51.580;4.578;2022-08-16T03:33:33;39.90;;;26.67;;
69152;SDS011;56261;51.580;4.578;2022-08-16T03:35:59;40.22;;;26.88;;
69152;SDS011;56261;51.580;4.578;2022-08-16T03:38:26;41.10;;;26.20;;
69152;SDS011;56261;51.580;4.578;2022-08-16T03:40:54;41.63;;;28.08;;
69152;SDS011;56261;51.580;4.578;2022-08-16T03:43:21;43.10;;;28.50;;
69152;SDS011;56261;51.580;4.578;2022-08-16T03:45:49;43.90;;;29.03;;
69152;SDS011;56261;51.580;4.578;2022-08-16T03:48:16;41.05;;;27.33;;
69152;SDS011;56261;51.580;4.578;2022-08-16T03:50:41;38.83;;;27.33;;
69152;SDS011;56261;51.580;4.578;2022-08-16T03:53:07;39.50;;;26.87;;
69152;SDS011;56261;51.580;4.578;2022-08-16T03:55:32;42.27;;;26.00;;
69152;SDS011;56261;51.580;4.578;2022-08-16T03:57:57;42.87;;;28.67;;
69152;SDS011;56261;51.580;4.578;2022-08-16T04:00:24;41.72;;;28.85;;
69152;SDS011;56261;51.580;4.578;2022-08-16T04:02:53;43.23;;;28.53;;
69152;SDS011;56261;51.580;4.578;2022-08-16T04:05:20;42.17;;;28.52;;
69152;SDS011;56261;51.580;4.578;2022-08-16T04:07:46;41.92;;;28.52;;
69152;SDS011;56261;51.580;4.578;2022-08-16T04:10:12;44.30;;;29.57;;
69152;SDS011;56261;51.580;4.578;2022-08-16T04:12:39;40.58;;;28.35;;
69152;SDS011;56261;51.580;4.578;2022-08-16T04:15:06;45.90;;;29.13;;
69152;SDS011;56261;51.580;4.578;2022-08-16T04:17:34;42.15;;;27.88;;
69152;SDS011;56261;51.580;4.578;2022-08-16T04:19:59;47.27;;;29.67;;
69152;SDS011;56261;51.580;4.578;2022-08-16T04:22:26;45.13;;;30.08;;
69152;SDS011;56261;51.580;4.578;2022-08-16T04:24:51;43.60;;;29.07;;
69152;SDS011;56261;51.580;4.578;2022-08-16T04:27:17;43.30;;;27.10;;
69152;SDS011;56261;51.580;4.578;2022-08-16T04:29:42;46.17;;;29.63;;
69152;SDS011;56261;51.580;4.578;2022-08-16T04:32:08;42.13;;;28.60;;
69152;SDS011;56261;51.580;4.578;2022-08-16T04:34:34;44.92;;;28.40;;
69152;SDS011;56261;51.580;4.578;2022-08-16T04:37:04;46.53;;;30.33;;
69152;SDS011;56261;51.580;4.578;2022-08-16T04:39:31;43.83;;;29.45;;
69152;SDS011;56261;51.580;4.578;2022-08-16T04:41:57;47.75;;;30.35;;
69152;SDS011;56261;51.580;4.578;2022-08-16T04:44:22;45.87;;;30.10;;
69152;SDS011;56261;51.580;4.578;2022-08-16T04:46:48;42.25;;;28.77;;
69152;SDS011;56261;51.580;4.578;2022-08-16T04:49:14;40.40;;;27.07;;
69152;SDS011;56261;51.580;4.578;2022-08-16T04:51:39;43.00;;;28.58;;
69152;SDS011;56261;51.580;4.578;2022-08-16T04:54:08;45.47;;;30.03;;
69152;SDS011;56261;51.580;4.578;2022-08-16T04:56:34;49.65;;;31.38;;
69152;SDS011;56261;51.580;4.578;2022-08-16T04:59:01;47.63;;;31.88;;
69152;SDS011;56261;51.580;4.578;2022-08-16T05:01:28;52.33;;;33.28;;
69152;SDS011;56261;51.580;4.578;2022-08-16T05:03:53;44.73;;;30.13;;
69152;SDS011;56261;51.580;4.578;2022-08-16T05:06:19;47.03;;;30.07;;
69152;SDS011;56261;51.580;4.578;2022-08-16T05:08:44;46.17;;;29.50;;
69152;SDS011;56261;51.580;4.578;2022-08-16T05:11:10;52.63;;;33.33;;
69152;SDS011;56261;51.580;4.578;2022-08-16T05:13:38;42.35;;;29.90;;
69152;SDS011;56261;51.580;4.578;2022-08-16T05:16:05;46.10;;;31.47;;
69152;SDS011;56261;51.580;4.578;2022-08-16T05:18:34;47.83;;;31.60;;
69152;SDS011;56261;51.580;4.578;2022-08-16T05:21:00;46.95;;;30.77;;
69152;SDS011;56261;51.580;4.578;2022-08-16T05:23:25;44.10;;;30.73;;
69152;SDS011;56261;51.580;4.578;2022-08-16T05:25:50;44.00;;;29.73;;
69152;SDS011;56261;51.580;4.578;2022-08-16T05:28:16;46.42;;;31.58;;
69152;SDS011;56261;51.580;4.578;2022-08-16T05:30:42;46.00;;;29.97;;
69152;SDS011;56261;51.580;4.578;2022-08-16T05:33:09;48.38;;;31.85;;
69152;SDS011;56261;51.580;4.578;2022-08-16T05:35:35;46.83;;;30.88;;
69152;SDS011;56261;51.580;4.578;2022-08-16T05:38:00;46.93;;;31.30;;
69152;SDS011;56261;51.580;4.578;2022-08-16T05:40:25;45.97;;;30.97;;
69152;SDS011;56261;51.580;4.578;2022-08-16T05:42:51;46.53;;;32.13;;
69152;SDS011;56261;51.580;4.578;2022-08-16T05:45:16;45.97;;;31.57;;
69152;SDS011;56261;51.580;4.578;2022-08-16T05:47:42;46.27;;;32.27;;
69152;SDS011;56261;51.580;4.578;2022-08-16T05:50:08;47.93;;;33.40;;
69152;SDS011;56261;51.580;4.578;2022-08-16T05:52:34;46.03;;;32.47;;
69152;SDS011;56261;51.580;4.578;2022-08-16T05:54:59;47.87;;;31.73;;
69152;SDS011;56261;51.580;4.578;2022-08-16T05:57:25;50.28;;;33.65;;
69152;SDS011;56261;51.580;4.578;2022-08-16T05:59:51;49.97;;;33.97;;
69152;SDS011;56261;51.580;4.578;2022-08-16T06:02:16;50.17;;;31.97;;
69152;SDS011;56261;51.580;4.578;2022-08-16T06:04:43;47.97;;;32.20;;
69152;SDS011;56261;51.580;4.578;2022-08-16T06:07:08;48.40;;;33.70;;
69152;SDS011;56261;51.580;4.578;2022-08-16T06:09:34;49.10;;;31.85;;
69152;SDS011;56261;51.580;4.578;2022-08-16T06:12:01;44.42;;;32.42;;
69152;SDS011;56261;51.580;4.578;2022-08-16T06:14:27;46.83;;;32.10;;
69152;SDS011;56261;51.580;4.578;2022-08-16T06:16:54;45.47;;;32.47;;
69152;SDS011;56261;51.580;4.578;2022-08-16T06:19:19;40.75;;;31.02;;
69152;SDS011;56261;51.580;4.578;2022-08-16T06:21:45;45.40;;;32.67;;
69152;SDS011;56261;51.580;4.578;2022-08-16T06:24:11;38.25;;;28.38;;
69152;SDS011;56261;51.580;4.578;2022-08-16T06:26:37;41.63;;;28.90;;
69152;SDS011;56261;51.580;4.578;2022-08-16T06:29:03;38.97;;;28.15;;
69152;SDS011;56261;51.580;4.578;2022-08-16T06:31:29;41.28;;;30.02;;
69152;SDS011;56261;51.580;4.578;2022-08-16T06:33:54;40.50;;;28.03;;
69152;SDS011;56261;51.580;4.578;2022-08-16T06:36:20;41.17;;;30.13;;
69152;SDS011;56261;51.580;4.578;2022-08-16T06:38:45;40.07;;;29.10;;
69152;SDS011;56261;51.580;4.578;2022-08-16T06:41:11;38.10;;;27.45;;
69152;SDS011;56261;51.580;4.578;2022-08-16T06:43:36;39.17;;;27.50;;
69152;SDS011;56261;51.580;4.578;2022-08-16T06:46:03;37.53;;;28.77;;
69152;SDS011;56261;51.580;4.578;2022-08-16T06:48:31;33.55;;;25.52;;
69152;SDS011;56261;51.580;4.578;2022-08-16T06:50:57;38.10;;;28.08;;
69152;SDS011;56261;51.580;4.578;2022-08-16T06:53:22;35.67;;;26.87;;
69152;SDS011;56261;51.580;4.578;2022-08-16T06:55:48;36.17;;;25.98;;
69152;SDS011;56261;51.580;4.578;2022-08-16T06:58:14;38.77;;;29.23;;
69152;SDS011;56261;51.580;4.578;2022-08-16T07:00:40;34.33;;;26.98;;
69152;SDS011;56261;51.580;4.578;2022-08-16T07:03:06;32.70;;;26.27;;
69152;SDS011;56261;51.580;4.578;2022-08-16T07:05:32;33.63;;;27.27;;
69152;SDS011;56261;51.580;4.578;2022-08-16T07:07:57;36.90;;;27.80;;
69152;SDS011;56261;51.580;4.578;2022-08-16T07:10:23;33.43;;;25.40;;
69152;SDS011;56261;51.580;4.578;2022-08-16T07:12:49;34.97;;;27.73;;
69152;SDS011;56261;51.580;4.578;2022-08-16T07:15:16;36.47;;;27.67;;
69152;SDS011;56261;51.580;4.578;2022-08-16T07:17:42;39.17;;;28.80;;
69152;SDS011;56261;51.580;4.578;2022-08-16T07:20:09;38.57;;;28.63;;
69152;SDS011;56261;51.580;4.578;2022-08-16T07:22:36;37.38;;;27.25;;
69152;SDS011;56261;51.580;4.578;2022-08-16T07:25:02;37.47;;;26.90;;
69152;SDS011;56261;51.580;4.578;2022-08-16T07:27:30;35.70;;;27.58;;
69152;SDS011;56261;51.580;4.578;2022-08-16T07:29:55;40.00;;;28.00;;
69152;SDS011;56261;51.580;4.578;2022-08-16T07:32:21;36.28;;;26.17;;
69152;SDS011;56261;51.580;4.578;2022-08-16T07:34:47;36.97;;;26.23;;
69152;SDS011;56261;51.580;4.578;2022-08-16T07:37:12;33.50;;;25.37;;
69152;SDS011;56261;51.580;4.578;2022-08-16T07:39:38;33.58;;;25.60;;
69152;SDS011;56261;51.580;4.578;2022-08-16T07:42:04;29.23;;;24.27;;
69152;SDS011;56261;51.580;4.578;2022-08-16T07:44:30;32.72;;;23.58;;
69152;SDS011;56261;51.580;4.578;2022-08-16T07:46:55;32.38;;;23.02;;
69152;SDS011;56261;51.580;4.578;2022-08-16T07:49:21;35.93;;;25.93;;
69152;SDS011;56261;51.580;4.578;2022-08-16T07:51:47;30.65;;;22.80;;
69152;SDS011;56261;51.580;4.578;2022-08-16T07:54:13;36.97;;;24.10;;
69152;SDS011;56261;51.580;4.578;2022-08-16T07:56:38;34.33;;;23.17;;
69152;SDS011;56261;51.580;4.578;2022-08-16T07:59:04;29.03;;;22.57;;
69152;SDS011;56261;51.580;4.578;2022-08-16T08:01:31;30.02;;;22.45;;
69152;SDS011;56261;51.580;4.578;2022-08-16T08:03:57;28.70;;;21.75;;
69152;SDS011;56261;51.580;4.578;2022-08-16T08:06:24;31.27;;;22.70;;
69152;SDS011;56261;51.580;4.578;2022-08-16T08:08:52;31.97;;;24.07;;
69152;SDS011;56261;51.580;4.578;2022-08-16T08:11:19;30.85;;;22.88;;
69152;SDS011;56261;51.580;4.578;2022-08-16T08:13:45;32.83;;;23.73;;
69152;SDS011;56261;51.580;4.578;2022-08-16T08:16:11;33.77;;;23.40;;
69152;SDS011;56261;51.580;4.578;2022-08-16T08:18:36;32.17;;;21.65;;
69152;SDS011;56261;51.580;4.578;2022-08-16T08:21:02;26.93;;;22.63;;
69152;SDS011;56261;51.580;4.578;2022-08-16T08:23:27;32.20;;;22.67;;
69152;SDS011;56261;51.580;4.578;2022-08-16T08:25:53;32.53;;;23.87;;
69152;SDS011;56261;51.580;4.578;2022-08-16T08:28:19;27.52;;;21.10;;
69152;SDS011;56261;51.580;4.578;2022-08-16T08:30:44;30.00;;;22.00;;
69152;SDS011;56261;51.580;4.578;2022-08-16T08:33:10;30.77;;;22.58;;
69152;SDS011;56261;51.580;4.578;2022-08-16T08:35:36;28.52;;;21.40;;
69152;SDS011;56261;51.580;4.578;2022-08-16T08:38:03;27.87;;;21.97;;
69152;SDS011;56261;51.580;4.578;2022-08-16T08:40:31;29.45;;;21.70;;
69152;SDS011;56261;51.580;4.578;2022-08-16T08:42:57;25.87;;;21.23;;
69152;SDS011;56261;51.580;4.578;2022-08-16T08:45:24;31.52;;;22.10;;
69152;SDS011;56261;51.580;4.578;2022-08-16T08:47:50;30.88;;;21.77;;
69152;SDS011;56261;51.580;4.578;2022-08-16T08:50:16;25.73;;;18.97;;
69152;SDS011;56261;51.580;4.578;2022-08-16T08:52:44;28.73;;;20.52;;
69152;SDS011;56261;51.580;4.578;2022-08-16T08:55:11;27.92;;;21.27;;
69152;SDS011;56261;51.580;4.578;2022-08-16T08:57:39;31.42;;;21.33;;
69152;SDS011;56261;51.580;4.578;2022-08-16T09:00:06;36.23;;;21.97;;
69152;SDS011;56261;51.580;4.578;2022-08-16T09:02:33;29.88;;;21.30;;
69152;SDS011;56261;51.580;4.578;2022-08-16T09:04:58;24.50;;;19.37;;
69152;SDS011;56261;51.580;4.578;2022-08-16T09:07:24;29.38;;;20.55;;
69152;SDS011;56261;51.580;4.578;2022-08-16T09:09:49;28.47;;;21.07;;
69152;SDS011;56261;51.580;4.578;2022-08-16T09:12:14;26.73;;;20.60;;
69152;SDS011;56261;51.580;4.578;2022-08-16T09:14:42;26.70;;;20.58;;
69152;SDS011;56261;51.580;4.578;2022-08-16T09:17:09;27.40;;;20.52;;
69152;SDS011;56261;51.580;4.578;2022-08-16T09:19:35;26.17;;;20.53;;
69152;SDS011;56261;51.580;4.578;2022-08-16T09:22:02;23.77;;;18.85;;
69152;SDS011;56261;51.580;4.578;2022-08-16T09:24:28;25.45;;;18.85;;
69152;SDS011;56261;51.580;4.578;2022-08-16T09:26:54;25.77;;;20.20;;
69152;SDS011;56261;51.580;4.578;2022-08-16T09:29:19;27.63;;;21.87;;
69152;SDS011;56261;51.580;4.578;2022-08-16T09:31:45;26.60;;;19.67;;
69152;SDS011;56261;51.580;4.578;2022-08-16T09:34:11;27.33;;;20.35;;
69152;SDS011;56261;51.580;4.578;2022-08-16T09:36:36;24.73;;;20.00;;
69152;SDS011;56261;51.580;4.578;2022-08-16T09:39:02;28.98;;;22.48;;
69152;SDS011;56261;51.580;4.578;2022-08-16T09:41:28;24.57;;;19.33;;
69152;SDS011;56261;51.580;4.578;2022-08-16T09:43:54;25.60;;;18.75;;
69152;SDS011;56261;51.580;4.578;2022-08-16T09:46:20;24.75;;;17.63;;
69152;SDS011;56261;51.580;4.578;2022-08-16T09:48:48;25.92;;;19.23;;
69152;SDS011;56261;51.580;4.578;2022-08-16T09:51:13;31.77;;;17.60;;
69152;SDS011;56261;51.580;4.578;2022-08-16T09:53:39;21.55;;;17.42;;
69152;SDS011;56261;51.580;4.578;2022-08-16T09:59:09;24.27;;;18.05;;
69152;SDS011;56261;51.580;4.578;2022-08-16T10:01:37;23.50;;;18.93;;
69152;SDS011;56261;51.580;4.578;2022-08-16T10:04:05;25.55;;;17.70;;
69152;SDS011;56261;51.580;4.578;2022-08-16T10:06:34;21.63;;;17.65;;
69152;SDS011;56261;51.580;4.578;2022-08-16T10:09:01;25.23;;;18.47;;
69152;SDS011;56261;51.580;4.578;2022-08-16T10:11:28;24.10;;;17.00;;
69152;SDS011;56261;51.580;4.578;2022-08-16T10:14:12;21.25;;;15.68;;
69152;SDS011;56261;51.580;4.578;2022-08-16T10:16:38;22.90;;;15.05;;
69152;SDS011;56261;51.580;4.578;2022-08-16T10:19:03;24.37;;;18.10;;
69152;SDS011;56261;51.580;4.578;2022-08-16T10:21:28;23.20;;;18.10;;
69152;SDS011;56261;51.580;4.578;2022-08-16T10:23:54;22.10;;;17.97;;
69152;SDS011;56261;51.580;4.578;2022-08-16T10:26:21;24.30;;;17.92;;
69152;SDS011;56261;51.580;4.578;2022-08-16T10:28:50;22.88;;;16.15;;
69152;SDS011;56261;51.580;4.578;2022-08-16T10:31:16;26.17;;;17.27;;
69152;SDS011;56261;51.580;4.578;2022-08-16T10:33:42;21.85;;;15.50;;
69152;SDS011;56261;51.580;4.578;2022-08-16T10:36:09;20.67;;;15.95;;
69152;SDS011;56261;51.580;4.578;2022-08-16T10:38:38;17.52;;;14.40;;
69152;SDS011;56261;51.580;4.578;2022-08-16T10:41:05;18.10;;;13.02;;
69152;SDS011;56261;51.580;4.578;2022-08-16T10:43:32;18.47;;;13.13;;
69152;SDS011;56261;51.580;4.578;2022-08-16T10:45:58;18.10;;;13.23;;
69152;SDS011;56261;51.580;4.578;2022-08-16T10:48:23;16.53;;;12.30;;
69152;SDS011;56261;51.580;4.578;2022-08-16T10:50:48;19.53;;;13.07;;
69152;SDS011;56261;51.580;4.578;2022-08-16T10:53:14;19.53;;;14.30;;
69152;SDS011;56261;51.580;4.578;2022-08-16T10:55:41;19.65;;;12.88;;
69152;SDS011;56261;51.580;4.578;2022-08-16T10:58:09;15.93;;;11.53;;
69152;SDS011;56261;51.580;4.578;2022-08-16T11:00:37;19.10;;;12.90;;
69152;SDS011;56261;51.580;4.578;2022-08-16T11:03:05;18.52;;;12.57;;
69152;SDS011;56261;51.580;4.578;2022-08-16T11:05:32;16.75;;;12.10;;
69152;SDS011;56261;51.580;4.578;2022-08-16T11:07:59;14.68;;;9.98;;
69152;SDS011;56261;51.580;4.578;2022-08-16T11:10:35;16.80;;;9.93;;
69152;SDS011;56261;51.580;4.578;2022-08-16T11:13:02;13.38;;;9.38;;
69152;SDS011;56261;51.580;4.578;2022-08-16T11:15:30;15.07;;;8.90;;
69152;SDS011;56261;51.580;4.578;2022-08-16T11:17:56;14.67;;;10.03;;
69152;SDS011;56261;51.580;4.578;2022-08-16T11:20:21;12.40;;;9.13;;
69152;SDS011;56261;51.580;4.578;2022-08-16T11:22:47;15.93;;;10.13;;
69152;SDS011;56261;51.580;4.578;2022-08-16T11:25:15;14.80;;;9.80;;
69152;SDS011;56261;51.580;4.578;2022-08-16T11:27:43;15.95;;;9.10;;
69152;SDS011;56261;51.580;4.578;2022-08-16T11:30:10;14.80;;;9.87;;
69152;SDS011;56261;51.580;4.578;2022-08-16T11:32:37;16.98;;;8.75;;
69152;SDS011;56261;51.580;4.578;2022-08-16T11:35:04;12.27;;;8.45;;
69152;SDS011;56261;51.580;4.578;2022-08-16T11:37:33;11.05;;;7.63;;
69152;SDS011;56261;51.580;4.578;2022-08-16T11:40:00;12.80;;;7.70;;
69152;SDS011;56261;51.580;4.578;2022-08-16T11:42:26;11.00;;;7.90;;
69152;SDS011;56261;51.580;4.578;2022-08-16T11:44:51;11.10;;;7.22;;
69152;SDS011;56261;51.580;4.578;2022-08-16T11:47:17;10.57;;;6.50;;
69152;SDS011;56261;51.580;4.578;2022-08-16T11:49:42;11.47;;;7.10;;
69152;SDS011;56261;51.580;4.578;2022-08-16T11:52:07;12.80;;;6.50;;
69152;SDS011;56261;51.580;4.578;2022-08-16T11:54:33;10.05;;;6.30;;
69152;SDS011;56261;51.580;4.578;2022-08-16T11:57:00;10.27;;;6.30;;
69152;SDS011;56261;51.580;4.578;2022-08-16T11:59:25;8.73;;;6.43;;
69152;SDS011;56261;51.580;4.578;2022-08-16T12:01:57;9.93;;;6.20;;
69152;SDS011;56261;51.580;4.578;2022-08-16T12:04:23;11.43;;;8.20;;
69152;SDS011;56261;51.580;4.578;2022-08-16T12:06:50;10.48;;;6.88;;
69152;SDS011;56261;51.580;4.578;2022-08-16T12:09:16;12.67;;;6.47;;
69152;SDS011;56261;51.580;4.578;2022-08-16T12:11:41;9.55;;;5.65;;
69152;SDS011;56261;51.580;4.578;2022-08-16T12:14:08;9.90;;;5.67;;
69152;SDS011;56261;51.580;4.578;2022-08-16T12:16:34;10.20;;;5.22;;
69152;SDS011;56261;51.580;4.578;2022-08-16T12:19:00;10.03;;;7.40;;
69152;SDS011;56261;51.580;4.578;2022-08-16T12:21:26;12.55;;;8.10;;
69152;SDS011;56261;51.580;4.578;2022-08-16T12:23:52;11.90;;;8.17;;
69152;SDS011;56261;51.580;4.578;2022-08-16T12:26:17;13.80;;;9.87;;
69152;SDS011;56261;51.580;4.578;2022-08-16T12:28:43;12.00;;;8.77;;
69152;SDS011;56261;51.580;4.578;2022-08-16T12:31:09;9.93;;;5.97;;
69152;SDS011;56261;51.580;4.578;2022-08-16T12:33:35;7.43;;;4.57;;
69152;SDS011;56261;51.580;4.578;2022-08-16T12:36:00;9.13;;;4.90;;
69152;SDS011;56261;51.580;4.578;2022-08-16T12:38:25;12.30;;;7.53;;
69152;SDS011;56261;51.580;4.578;2022-08-16T12:40:51;9.57;;;6.03;;
69152;SDS011;56261;51.580;4.578;2022-08-16T12:43:17;9.35;;;5.03;;
69152;SDS011;56261;51.580;4.578;2022-08-16T12:45:48;11.35;;;5.40;;
69152;SDS011;56261;51.580;4.578;2022-08-16T12:48:15;8.10;;;4.20;;
69152;SDS011;56261;51.580;4.578;2022-08-16T12:51:06;5.60;;;3.60;;
69152;SDS011;56261;51.580;4.578;2022-08-16T12:53:34;7.88;;;3.38;;
69152;SDS011;56261;51.580;4.578;2022-08-16T12:56:00;6.85;;;3.58;;
69152;SDS011;56261;51.580;4.578;2022-08-16T12:58:26;6.53;;;3.90;;
69152;SDS011;56261;51.580;4.578;2022-08-16T13:00:52;8.23;;;4.20;;
69152;SDS011;56261;51.580;4.578;2022-08-16T13:03:18;8.97;;;4.10;;
69152;SDS011;56261;51.580;4.578;2022-08-16T13:05:44;7.50;;;4.38;;
69152;SDS011;56261;51.580;4.578;2022-08-16T13:08:13;10.40;;;4.55;;
69152;SDS011;56261;51.580;4.578;2022-08-16T13:10:43;7.85;;;4.15;;
69152;SDS011;56261;51.580;4.578;2022-08-16T13:13:11;6.18;;;4.10;;
69152;SDS011;56261;51.580;4.578;2022-08-16T13:15:40;6.90;;;3.97;;
69152;SDS011;56261;51.580;4.578;2022-08-16T13:18:08;7.70;;;4.13;;
69152;SDS011;56261;51.580;4.578;2022-08-16T13:20:33;6.40;;;3.88;;
69152;SDS011;56261;51.580;4.578;2022-08-16T13:23:01;8.57;;;4.20;;
69152;SDS011;56261;51.580;4.578;2022-08-16T13:25:32;6.97;;;3.90;;
69152;SDS011;56261;51.580;4.578;2022-08-16T13:27:59;5.88;;;3.90;;
69152;SDS011;56261;51.580;4.578;2022-08-16T13:30:26;6.03;;;3.15;;
69152;SDS011;56261;51.580;4.578;2022-08-16T13:32:53;6.77;;;3.80;;
69152;SDS011;56261;51.580;4.578;2022-08-16T13:35:20;6.63;;;4.00;;
69152;SDS011;56261;51.580;4.578;2022-08-16T13:37:46;7.88;;;3.80;;
69152;SDS011;56261;51.580;4.578;2022-08-16T13:40:12;8.10;;;4.03;;
69152;SDS011;56261;51.580;4.578;2022-08-16T13:42:37;8.80;;;4.40;;
69152;SDS011;56261;51.580;4.578;2022-08-16T13:45:05;8.52;;;4.30;;
69152;SDS011;56261;51.580;4.578;2022-08-16T13:47:31;6.78;;;4.20;;
69152;SDS011;56261;51.580;4.578;2022-08-16T13:49:57;7.87;;;4.40;;
69152;SDS011;56261;51.580;4.578;2022-08-16T13:52:22;7.67;;;3.93;;
69152;SDS011;56261;51.580;4.578;2022-08-16T13:54:48;7.53;;;4.70;;
69152;SDS011;56261;51.580;4.578;2022-08-16T13:57:14;9.03;;;4.80;;
69152;SDS011;56261;51.580;4.578;2022-08-16T13:59:39;7.38;;;4.68;;
69152;SDS011;56261;51.580;4.578;2022-08-16T14:02:06;10.63;;;5.22;;
69152;SDS011;56261;51.580;4.578;2022-08-16T14:04:33;9.87;;;5.27;;
69152;SDS011;56261;51.580;4.578;2022-08-16T14:07:02;8.68;;;4.97;;
69152;SDS011;56261;51.580;4.578;2022-08-16T14:09:29;10.63;;;4.93;;
69152;SDS011;56261;51.580;4.578;2022-08-16T14:11:56;8.25;;;4.97;;
69152;SDS011;56261;51.580;4.578;2022-08-16T14:14:23;10.27;;;5.13;;
69152;SDS011;56261;51.580;4.578;2022-08-16T14:16:49;8.67;;;5.50;;
69152;SDS011;56261;51.580;4.578;2022-08-16T14:19:15;8.70;;;5.30;;
69152;SDS011;56261;51.580;4.578;2022-08-16T14:21:45;10.07;;;5.03;;
69152;SDS011;56261;51.580;4.578;2022-08-16T14:24:12;10.40;;;6.10;;
69152;SDS011;56261;51.580;4.578;2022-08-16T14:26:39;11.85;;;6.20;;
69152;SDS011;56261;51.580;4.578;2022-08-16T14:29:06;10.52;;;6.00;;
69152;SDS011;56261;51.580;4.578;2022-08-16T14:31:31;10.07;;;5.13;;